Time;durP1;ratioP1;P1;durP2;ratioP2;P2;SDS_P1;SDS_P2;PMS_P1;PMS_P2;Temp;Humidity;BMP_temperature;BMP_pressure;BME280_temperature;BME280_humidity;BME280_pressure;Samples;Min_cycle;Max_cycle;Signal;HPM_P1;HPM_P2
2023/09/10 00:03:50;;;;;;;7.75;6.37;;;;;;;20.79;73.07;99299.69;7297485;39;20333;31
2023/09/10 00:09:11;;;;;;;8.35;6.15;;;;;;;20.73;73.67;99297.03;7296155;40;20241;31
2023/09/10 00:14:48;;;;;;;7.18;6.12;;;;;;;20.61;75.26;99306.03;7293621;39;20252;31
2023/09/10 00:20:26;;;;;;;6.47;5.87;;;;;;;20.69;74.65;99297.50;7316316;39;20240;31
2023/09/10 00:25:44;;;;;;;7.45;5.85;;;;;;;20.63;73.86;99292.09;7355586;39;20520;31
2023/09/10 00:31:19;;;;;;;8.07;6.20;;;;;;;20.52;74.15;99301.06;7363322;39;20263;31
2023/09/10 00:36:54;;;;;;;7.22;6.25;;;;;;;20.43;74.61;99303.28;7347236;39;20286;31
2023/09/10 00:47:34;;;;;;;8.60;6.75;;;;;;;20.25;75.86;99301.34;7317809;39;21241;31
2023/09/10 00:53:09;;;;;;;7.47;6.43;;;;;;;20.21;75.29;99294.63;7305935;39;20364;31
2023/09/10 00:58:41;;;;;;;8.65;7.15;;;;;;;20.20;75.61;99292.97;7164200;39;20243;31
2023/09/10 01:04:15;;;;;;;6.90;6.20;;;;;;;20.17;75.75;99293.41;7319032;39;20255;31
2023/09/10 01:09:50;;;;;;;8.50;6.78;;;;;;;20.16;74.30;99294.47;7298982;39;20268;31
2023/09/10 01:15:25;;;;;;;8.15;6.30;;;;;;;20.04;74.26;99298.19;7275476;39;20285;31
2023/09/10 01:21:17;;;;;;;7.70;6.55;;;;;;;20.03;75.21;99291.03;7228629;40;20273;31
2023/09/10 01:26:52;;;;;;;7.37;5.97;;;;;;;20.11;74.83;99302.53;7270286;40;20344;31
2023/09/10 01:43:20;;;;;;;7.35;6.35;;;;;;;19.78;75.52;99282.84;7316564;39;21106;31
2023/09/10 01:48:55;;;;;;;8.65;5.72;;;;;;;19.72;75.66;99281.00;7365753;39;20247;31
2023/09/10 01:54:27;;;;;;;7.57;5.90;;;;;;;19.71;74.26;99290.25;7331931;39;20247;31
2023/09/10 02:05:27;;;;;;;7.80;6.32;;;;;;;19.51;75.25;99287.69;7297044;39;20247;31
2023/09/10 02:10:47;;;;;;;7.45;6.60;;;;;;;19.51;75.16;99287.69;7315944;39;20248;31
2023/09/10 02:16:22;;;;;;;6.30;5.40;;;;;;;19.47;75.48;99278.25;7306205;39;20701;31
2023/09/10 02:21:42;;;;;;;8.55;5.85;;;;;;;19.54;74.43;99283.66;7276511;39;20318;31
2023/09/10 02:27:17;;;;;;;6.60;6.00;;;;;;;19.60;74.12;99280.91;7318948;39;20342;31
2023/09/10 02:32:49;;;;;;;7.15;5.70;;;;;;;19.55;75.34;99283.44;7314213;39;20274;31
2023/09/10 02:38:09;;;;;;;6.53;5.72;;;;;;;19.62;73.67;99284.22;7281794;39;20560;31
2023/09/10 02:43:28;;;;;;;7.00;6.30;;;;;;;19.53;74.61;99276.50;7276678;39;20360;31
2023/09/10 02:49:07;;;;;;;6.50;5.90;;;;;;;19.54;74.13;99281.78;7294171;39;20256;31
2023/09/10 02:54:45;;;;;;;6.17;5.53;;;;;;;19.32;75.14;99277.69;7321013;39;20317;31
2023/09/10 03:00:07;;;;;;;7.80;6.00;;;;;;;19.34;74.95;99281.91;7304690;39;20374;31
2023/09/10 03:05:41;;;;;;;6.90;6.10;;;;;;;19.18;75.45;99282.41;7298708;39;20251;31
2023/09/10 03:11:17;;;;;;;6.87;5.97;;;;;;;19.07;75.93;99291.31;7295809;39;20441;31
2023/09/10 03:16:52;;;;;;;8.55;6.25;;;;;;;19.05;75.67;99287.94;7333480;39;20240;31
2023/09/10 03:22:28;;;;;;;7.40;5.84;;;;;;;19.14;76.26;99294.00;7246784;40;20369;31
2023/09/10 03:27:48;;;;;;;7.97;6.47;;;;;;;19.10;75.08;99290.88;7288095;39;20268;31
2023/09/10 03:33:24;;;;;;;6.23;5.63;;;;;;;18.95;76.39;99287.59;7270425;39;20251;31
2023/09/10 03:39:00;;;;;;;9.70;6.30;;;;;;;18.81;75.81;99291.47;7318459;39;20244;31
2023/09/10 03:44:35;;;;;;;6.30;5.70;;;;;;;18.68;75.50;99284.16;7280096;39;20244;31
2023/09/10 03:50:11;;;;;;;7.10;6.40;;;;;;;18.77;75.54;99288.31;7257415;40;20306;31
2023/09/10 03:55:44;;;;;;;6.55;5.85;;;;;;;18.86;76.27;99292.50;7249619;40;20269;31
2023/09/10 04:01:05;;;;;;;9.55;6.45;;;;;;;18.80;75.85;99292.50;7241319;40;20313;31
2023/09/10 04:06:26;;;;;;;8.35;6.40;;;;;;;18.63;76.12;99299.50;7253094;39;20240;31
2023/09/10 04:12:02;;;;;;;7.00;5.70;;;;;;;18.47;76.47;99300.81;7277448;40;20360;31
2023/09/10 04:17:23;;;;;;;7.45;6.15;;;;;;;18.56;75.51;99312.34;7276980;39;20245;31
2023/09/10 04:22:57;;;;;;;7.13;6.30;;;;;;;18.38;76.52;99310.28;7322366;39;20373;31
2023/09/10 04:28:33;;;;;;;6.57;5.53;;;;;;;18.28;77.12;99310.72;7324243;39;20314;31
2023/09/10 04:34:08;;;;;;;7.02;5.96;;;;;;;18.52;75.83;99309.16;7294448;39;20296;31
2023/09/10 04:39:43;;;;;;;6.97;6.28;;;;;;;18.44;76.04;99317.59;7258904;40;20249;31
2023/09/10 04:45:20;;;;;;;9.23;7.03;;;;;;;18.20;76.58;99315.56;7228195;40;20257;31
2023/09/10 04:50:55;;;;;;;6.83;6.13;;;;;;;18.07;76.48;99321.03;7297909;39;20363;31
2023/09/10 04:56:26;;;;;;;7.90;5.90;;;;;;;18.02;76.79;99327.97;7312088;39;20256;31
2023/09/10 05:02:02;;;;;;;7.37;6.33;;;;;;;18.01;77.51;99320.00;7255379;40;20269;31
2023/09/10 05:07:23;;;;;;;9.00;7.15;;;;;;;17.97;76.89;99321.47;7245684;40;20325;31
2023/09/10 05:12:57;;;;;;;7.00;6.30;;;;;;;17.90;77.63;99332.34;7329576;39;20372;31
2023/09/10 05:18:33;;;;;;;11.70;7.17;;;;;;;17.97;77.40;99333.22;7279132;40;20697;31
2023/09/10 05:24:08;;;;;;;7.50;6.70;;;;;;;18.09;76.89;99332.56;7318418;39;20256;31
2023/09/10 05:29:44;;;;;;;9.40;6.93;;;;;;;18.20;76.80;99332.78;7276662;39;20804;31
2023/09/10 05:35:22;;;;;;;7.70;6.73;;;;;;;18.15;77.33;99334.44;7267297;39;21198;31
2023/09/10 05:41:12;;;;;;;7.27;6.57;;;;;;;18.26;76.44;99341.97;7252173;40;20643;31
2023/09/10 05:46:21;;;;;;;7.52;6.36;;;;;;;18.30;77.52;99335.88;7310808;39;20305;31
2023/09/10 05:51:57;;;;;;;9.50;6.27;;;;;;;18.45;76.87;99341.12;7339405;39;20341;31
2023/09/10 05:57:33;;;;;;;7.40;6.23;;;;;;;18.58;75.87;99345.72;7251204;40;20284;31
2023/09/10 06:02:54;;;;;;;9.57;6.50;;;;;;;18.53;76.77;99353.72;7304389;39;20247;31
2023/09/10 06:08:31;;;;;;;7.90;6.20;;;;;;;18.59;77.87;99348.25;7332546;39;20318;31
2023/09/10 06:13:51;;;;;;;8.40;6.70;;;;;;;18.76;76.99;99356.81;7348539;39;20250;31
2023/09/10 06:19:30;;;;;;;9.45;6.50;;;;;;;18.95;77.02;99355.91;7340355;39;20247;31
2023/09/10 06:30:10;;;;;;;9.00;7.43;;;;;;;19.30;79.41;99362.66;7355283;39;21100;31
2023/09/10 06:35:46;;;;;;;8.10;7.30;;;;;;;19.50;78.95;99365.31;7333773;39;20267;31
2023/09/10 06:41:06;;;;;;;9.10;7.13;;;;;;;19.79;78.73;99367.41;7313036;39;20244;31
2023/09/10 06:46:40;;;;;;;7.90;7.10;;;;;;;19.97;78.21;99369.37;7381033;39;20247;31
2023/09/10 06:52:00;;;;;;;7.60;6.80;;;;;;;20.23;76.62;99376.50;7346935;39;20267;31
2023/09/10 06:57:35;;;;;;;7.90;7.10;;;;;;;20.47;77.61;99383.91;7339854;39;20404;31
2023/09/10 07:08:16;;;;;;;8.00;7.10;;;;;;;20.79;76.54;99392.84;7335769;39;20269;31
2023/09/10 07:18:46;;;;;;;7.47;6.78;;;;;;;21.26;75.84;99393.16;7284655;39;20256;31
2023/09/10 07:24:22;;;;;;;10.52;7.25;;;;;;;21.44;76.37;99393.97;7112616;39;20247;31
2023/09/10 07:29:57;;;;;;;11.55;8.00;;;;;;;21.62;74.39;99400.47;7320090;39;20343;31
2023/09/10 07:40:39;;;;;;;11.95;9.07;;;;;;;21.96;74.48;99397.03;7278227;40;20369;31
2023/09/10 07:51:05;;;;;;;12.73;9.18;;;;;;;22.37;73.46;99399.72;7343498;39;20267;31
2023/09/10 07:56:41;;;;;;;10.98;8.57;;;;;;;22.51;73.61;99405.00;7380541;39;20262;31
2023/09/10 08:07:20;;;;;;;19.20;9.77;;;;;;;22.83;72.42;99403.56;7399933;39;21114;31
2023/09/10 08:12:54;;;;;;;11.10;8.75;;;;;;;23.01;73.12;99408.91;7325075;39;20251;31
2023/09/10 08:18:16;;;;;;;12.57;9.13;;;;;;;23.19;72.31;99411.50;7302986;39;20283;31
2023/09/10 08:23:35;;;;;;;11.32;10.23;;;;;;;23.39;71.83;99416.56;7323011;39;20259;31
2023/09/10 08:29:11;;;;;;;11.20;9.98;;;;;;;23.52;70.68;99408.06;7350563;39;20355;31
2023/09/10 08:34:32;;;;;;;11.75;9.05;;;;;;;23.62;70.50;99422.03;7348613;39;20282;31
2023/09/10 08:40:08;;;;;;;12.80;9.90;;;;;;;23.75;70.96;99420.91;7361564;39;20602;31
2023/09/10 08:45:47;;;;;;;10.95;9.85;;;;;;;23.98;70.65;99418.03;7320617;39;21080;31
2023/09/10 08:51:22;;;;;;;15.95;11.23;;;;;;;24.20;69.16;99416.25;7317353;39;20249;31
2023/09/10 09:02:08;;;;;;;15.20;10.90;;;;;;;24.60;68.59;99412.50;7292117;39;20355;31
2023/09/10 09:12:48;;;;;;;12.98;11.65;;;;;;;24.91;67.23;99406.37;7352877;39;20269;31
2023/09/10 09:18:27;;;;;;;43.97;33.30;;;;;;;25.11;66.17;99406.63;7400637;39;20243;31
2023/09/10 09:24:04;;;;;;;25.10;19.60;;;;;;;25.31;64.49;99405.22;7364250;39;20529;31
2023/09/10 09:29:40;;;;;;;51.80;39.13;;;;;;;25.53;65.21;99404.16;7338791;39;20244;31
2023/09/10 09:35:21;;;;;;;30.75;26.45;;;;;;;25.78;63.83;99409.13;7358920;40;20238;31
2023/09/10 09:40:55;;;;;;;17.05;15.25;;;;;;;26.03;62.88;99403.00;7285273;39;20272;31
2023/09/10 09:46:31;;;;;;;14.00;11.65;;;;;;;26.23;62.47;99407.94;7311789;39;20321;31
2023/09/10 09:52:07;;;;;;;11.38;10.20;;;;;;;26.38;62.26;99392.28;7283585;39;20357;31
2023/09/10 09:57:46;;;;;;;14.50;9.80;;;;;;;26.57;62.16;99395.47;7192639;40;20331;31
2023/09/10 10:03:21;;;;;;;17.65;14.60;;;;;;;26.84;61.90;99373.25;7250105;39;20259;31
2023/09/10 10:14:02;;;;;;;15.20;11.00;;;;;;;27.15;59.53;99380.62;7297208;39;20259;31
2023/09/10 10:19:38;;;;;;;12.98;9.77;;;;;;;27.51;59.31;99373.31;7295194;39;20281;31
2023/09/10 10:25:13;;;;;;;8.90;8.00;;;;;;;27.68;58.70;99373.09;7299602;39;20255;31
2023/09/10 10:30:50;;;;;;;9.35;8.20;;;;;;;27.89;56.97;99360.09;7318976;39;20244;31
2023/09/10 10:36:25;;;;;;;8.30;7.50;;;;;;;28.04;57.17;99352.59;7320184;39;20272;31
2023/09/10 10:42:01;;;;;;;8.75;7.00;;;;;;;28.18;54.60;99352.91;7246019;40;20244;31
2023/09/10 10:53:14;;;;;;;7.28;6.50;;;;;;;28.56;53.06;99341.25;7215364;40;20383;31
2023/09/10 10:58:49;;;;;;;8.32;6.70;;;;;;;28.81;53.62;99350.66;7249174;39;20269;31
2023/09/10 11:04:35;;;;;;;7.35;6.65;;;;;;;28.91;52.11;99340.34;7261443;40;20260;31
2023/09/10 11:10:32;;;;;;;7.20;6.60;;;;;;;29.14;51.19;99336.06;7239970;40;20452;31
2023/09/10 11:16:31;;;;;;;7.30;6.37;;;;;;;29.23;51.11;99334.38;7301193;39;20393;31
2023/09/10 11:27:35;;;;;;;8.23;6.25;;;;;;;29.45;49.79;99328.44;7348110;39;21115;31
2023/09/10 11:33:46;;;;;;;7.50;5.70;;;;;;;29.55;50.08;99322.84;7338458;39;20263;31
2023/09/10 11:39:21;;;;;;;6.60;5.65;;;;;;;29.79;48.00;99320.19;7338918;39;20240;31
2023/09/10 11:44:58;;;;;;;12.20;5.50;;;;;;;29.91;48.62;99317.91;7196243;40;20266;31
2023/09/10 11:50:38;;;;;;;7.42;5.10;;;;;;;30.12;47.22;99316.59;7240531;40;20411;31
2023/09/10 11:56:01;;;;;;;9.35;5.05;;;;;;;30.35;45.66;99318.62;7270102;39;20337;31
2023/09/10 12:01:35;;;;;;;10.40;4.95;;;;;;;30.38;45.73;99306.91;7314484;39;20425;31
2023/09/10 12:07:13;;;;;;;11.25;5.40;;;;;;;30.42;46.09;99307.97;7297644;39;20256;31
2023/09/10 12:12:48;;;;;;;8.48;4.90;;;;;;;30.28;42.66;99297.81;7323485;39;20424;31
2023/09/10 12:18:22;;;;;;;6.35;4.80;;;;;;;30.42;43.81;99294.06;7298503;39;20260;31
2023/09/10 12:24:03;;;;;;;10.13;4.85;;;;;;;30.67;43.48;99292.97;7176230;39;20311;31
2023/09/10 12:29:36;;;;;;;10.00;4.35;;;;;;;30.83;43.36;99288.91;7311066;39;20580;31
2023/09/10 12:35:13;;;;;;;8.20;4.60;;;;;;;30.91;41.25;99290.19;7274663;40;20273;31
2023/09/10 12:40:51;;;;;;;10.48;5.07;;;;;;;30.80;42.47;99292.25;7257114;40;20287;31
2023/09/10 12:46:29;;;;;;;10.38;4.55;;;;;;;30.93;42.45;99282.38;7251985;40;20250;31
2023/09/10 12:52:09;;;;;;;11.18;4.75;;;;;;;31.08;40.22;99284.16;7204960;40;20257;31
2023/09/10 12:57:44;;;;;;;11.35;4.40;;;;;;;31.21;39.45;99287.03;7223927;40;20261;31
2023/09/10 13:03:22;;;;;;;11.07;4.37;;;;;;;31.16;39.00;99273.16;7280529;39;20398;31
2023/09/10 13:09:00;;;;;;;10.13;4.53;;;;;;;31.26;40.37;99272.22;7298844;39;20348;31
2023/09/10 13:14:20;;;;;;;9.00;4.37;;;;;;;31.45;40.71;99272.22;7309385;39;20688;31
2023/09/10 13:19:57;;;;;;;12.52;5.78;;;;;;;31.47;40.76;99267.16;7336420;39;20529;31
2023/09/10 13:25:35;;;;;;;16.23;5.10;;;;;;;31.19;40.92;99257.84;7244264;40;20253;31
2023/09/10 13:31:11;;;;;;;17.48;5.07;;;;;;;31.32;41.53;99257.09;7235887;40;20273;31
2023/09/10 13:36:46;;;;;;;13.68;5.12;;;;;;;31.19;39.48;99250.31;7288564;40;20245;31
2023/09/10 13:42:15;;;;;;;14.43;4.72;;;;;;;31.39;39.91;99251.94;7300615;40;20338;31
2023/09/10 13:52:54;;;;;;;15.10;4.50;;;;;;;31.51;39.72;99231.97;7357134;39;20264;31
2023/09/10 14:03:34;;;;;;;17.73;5.07;;;;;;;31.41;38.32;99230.19;7354125;39;20468;31
2023/09/10 14:09:07;;;;;;;12.60;5.05;;;;;;;31.31;39.97;99217.25;7037429;40;21244;31
2023/09/10 14:14:29;;;;;;;15.02;5.57;;;;;;;31.26;41.05;99208.97;7270998;40;20271;31
2023/09/10 14:20:04;;;;;;;8.82;5.03;;;;;;;31.37;40.39;99209.66;7283033;39;20260;31
2023/09/10 14:25:40;;;;;;;10.60;4.82;;;;;;;31.23;39.84;99209.56;7294535;39;20241;31
2023/09/10 14:31:15;;;;;;;15.57;4.85;;;;;;;31.24;39.65;99208.41;7298127;39;20332;31
2023/09/10 14:36:35;;;;;;;12.20;4.63;;;;;;;31.33;39.05;99210.56;7319887;39;20261;31
2023/09/10 14:42:14;;;;;;;12.00;4.20;;;;;;;31.14;39.07;99205.81;7318624;39;20274;31
2023/09/10 14:47:35;;;;;;;13.48;4.60;;;;;;;31.21;36.81;99206.25;7345890;39;20243;31
2023/09/10 14:53:06;;;;;;;12.50;5.40;;;;;;;31.12;39.31;99198.88;7341152;39;20260;31
2023/09/10 14:58:43;;;;;;;11.35;4.65;;;;;;;31.15;39.67;99189.94;7261945;39;20268;31
2023/09/10 15:09:55;;;;;;;12.32;4.66;;;;;;;31.17;38.27;99182.91;7253844;40;20426;31
2023/09/10 15:15:28;;;;;;;14.30;4.97;;;;;;;31.18;37.86;99181.78;7269158;40;20264;31
2023/09/10 15:21:03;;;;;;;12.12;4.76;;;;;;;31.18;39.20;99181.78;7241830;40;20245;31
2023/09/10 15:26:40;;;;;;;13.48;4.75;;;;;;;31.02;39.38;99176.75;7298261;40;20874;31
2023/09/10 15:32:18;;;;;;;15.40;4.60;;;;;;;30.94;38.94;99178.19;7313341;39;20358;31
2023/09/10 15:37:56;;;;;;;15.45;4.32;;;;;;;30.86;35.17;99176.09;7254293;40;20372;31
2023/09/10 15:48:39;;;;;;;12.14;4.10;;;;;;;30.48;35.54;99166.03;7288670;39;20284;31
2023/09/10 15:59:04;;;;;;;17.90;4.10;;;;;;;30.29;37.88;99155.66;7396895;39;20586;31
2023/09/10 16:04:46;;;;;;;13.90;4.47;;;;;;;30.19;37.55;99158.56;7400225;39;21154;31
2023/09/10 16:15:12;;;;;;;11.65;4.97;;;;;;;30.03;39.38;99159.84;7298935;39;20519;31
2023/09/10 16:25:52;;;;;;;14.73;4.60;;;;;;;29.77;40.94;99150.94;7353120;39;20275;31
2023/09/10 16:36:33;;;;;;;10.13;4.55;;;;;;;29.59;42.50;99145.25;7341509;39;20287;31
2023/09/10 16:47:09;;;;;;;13.70;4.80;;;;;;;29.35;45.14;99154.37;7393118;39;20274;31
2023/09/10 16:57:48;;;;;;;16.45;4.78;;;;;;;29.04;46.80;99148.19;7406452;39;21102;31
2023/09/10 17:03:21;;;;;;;12.60;4.03;;;;;;;28.90;47.69;99149.94;7406239;39;20259;31
2023/09/10 17:13:46;;;;;;;12.90;4.60;;;;;;;28.61;50.38;99147.00;7372226;39;21009;31
2023/09/10 17:24:30;;;;;;;17.60;4.97;;;;;;;28.03;51.01;99140.31;7407298;39;20448;31
2023/09/10 17:29:54;;;;;;;15.95;5.35;;;;;;;27.89;52.70;99139.22;7342088;39;20601;31
2023/09/10 17:35:09;;;;;;;12.00;4.37;;;;;;;27.57;50.99;99134.03;7318166;39;21326;31
2023/09/10 17:40:41;;;;;;;12.70;4.90;;;;;;;27.29;52.44;99129.03;7319817;39;20275;31
2023/09/10 17:51:21;;;;;;;14.90;4.50;;;;;;;26.87;53.43;99141.16;7399790;39;21080;31
2023/09/10 17:56:57;;;;;;;14.06;5.38;;;;;;;26.57;54.94;99154.91;7358548;39;20256;31
2023/09/10 18:02:18;;;;;;;16.62;5.78;;;;;;;26.42;54.84;99158.44;7342736;39;20256;31
2023/09/10 18:07:57;;;;;;;13.35;5.30;;;;;;;26.18;55.40;99164.66;7318912;39;20256;31
2023/09/10 18:13:33;;;;;;;14.58;5.86;;;;;;;25.98;55.14;99162.59;7270789;39;20324;31
2023/09/10 18:18:54;;;;;;;13.13;5.03;;;;;;;25.85;55.84;99169.44;7263913;40;20319;31
2023/09/10 18:24:14;;;;;;;18.33;5.35;;;;;;;25.61;56.23;99176.44;7253241;40;20593;31
2023/09/10 18:34:54;;;;;;;12.10;5.50;;;;;;;25.14;56.01;99168.84;7285454;39;20281;31
2023/09/10 18:40:35;;;;;;;13.23;5.53;;;;;;;24.96;56.77;99173.91;7362563;39;20268;31
2023/09/10 18:46:16;;;;;;;10.17;5.27;;;;;;;24.64;56.99;99184.84;7336192;39;20270;31
2023/09/10 18:51:56;;;;;;;11.56;5.80;;;;;;;24.46;58.36;99182.41;7315310;39;20272;31
2023/09/10 18:57:17;;;;;;;11.57;5.47;;;;;;;24.44;58.19;99179.09;7307141;39;20368;31
2023/09/10 19:02:37;;;;;;;15.90;5.70;;;;;;;24.20;58.07;99184.00;7319008;39;20483;31
2023/09/10 19:08:11;;;;;;;12.37;6.68;;;;;;;23.98;58.77;99189.47;7353094;39;20229;31
2023/09/10 19:13:31;;;;;;;12.63;5.82;;;;;;;23.88;59.27;99194.81;7368938;39;20259;31
2023/09/10 19:24:17;;;;;;;12.20;6.30;;;;;;;23.76;59.06;99200.44;7378294;39;21124;31
2023/09/10 19:29:40;;;;;;;13.50;8.00;;;;;;;23.73;59.86;99202.84;7317400;39;20666;31
2023/09/10 19:35:03;;;;;;;12.40;5.76;;;;;;;23.69;59.48;99196.19;7359422;39;20243;31
2023/09/10 19:40:38;;;;;;;10.13;5.82;;;;;;;23.44;60.63;99188.34;7403314;39;20391;31
2023/09/10 19:45:59;;;;;;;12.88;6.43;;;;;;;23.22;60.51;99185.47;7320179;39;20259;31
2023/09/10 19:51:35;;;;;;;10.23;5.47;;;;;;;22.95;62.46;99186.34;7333227;39;20635;31
2023/09/10 19:57:11;;;;;;;8.90;5.87;;;;;;;22.74;61.95;99179.63;7308134;39;20248;31
2023/09/10 20:02:46;;;;;;;13.06;5.86;;;;;;;22.70;61.85;99192.19;7294706;39;20627;31
2023/09/10 20:08:21;;;;;;;9.10;5.76;;;;;;;22.65;62.20;99189.31;7261309;40;20720;31
2023/09/10 20:13:56;;;;;;;10.75;5.55;;;;;;;22.45;62.79;99187.84;7211316;40;20815;31
2023/09/10 20:19:15;;;;;;;12.32;6.22;;;;;;;22.45;62.29;99190.59;7207779;40;20867;31
2023/09/10 20:24:36;;;;;;;10.70;6.00;;;;;;;22.45;62.58;99192.50;7245850;40;20248;31
2023/09/10 20:30:12;;;;;;;11.54;6.04;;;;;;;22.37;63.11;99190.97;7277274;39;20342;31
2023/09/10 20:35:47;;;;;;;14.30;5.90;;;;;;;22.25;63.59;99181.91;7313276;39;20240;31
2023/09/10 20:41:22;;;;;;;11.73;6.22;;;;;;;22.02;64.75;99185.56;7316140;39;20264;31
2023/09/10 20:52:02;;;;;;;16.45;6.22;;;;;;;21.79;64.92;99180.03;7306648;39;21234;31
2023/09/10 20:57:24;;;;;;;13.77;6.03;;;;;;;21.70;64.55;99191.59;7304773;39;20404;31
2023/09/10 21:02:59;;;;;;;13.40;6.05;;;;;;;21.59;65.47;99179.53;7310521;39;20274;31
2023/09/10 21:08:35;;;;;;;10.70;5.80;;;;;;;21.47;65.77;99173.22;7318573;39;20244;31
2023/09/10 21:13:55;;;;;;;13.33;6.30;;;;;;;21.45;65.01;99180.88;7294179;40;20268;31
2023/09/10 21:19:13;;;;;;;10.48;5.43;;;;;;;21.38;65.58;99180.97;7082651;40;20402;31
2023/09/10 21:24:51;;;;;;;8.92;5.32;;;;;;;21.29;66.11;99174.16;7275008;39;20289;31
2023/09/10 21:30:12;;;;;;;9.80;5.60;;;;;;;21.16;66.31;99171.63;7248069;40;20337;31
2023/09/10 21:35:48;;;;;;;10.00;5.07;;;;;;;21.07;67.10;99170.28;7261161;40;20264;31
2023/09/10 21:41:19;;;;;;;17.08;6.00;;;;;;;20.95;66.36;99167.50;7230797;40;20257;31
2023/09/10 21:46:39;;;;;;;14.65;5.50;;;;;;;21.03;66.42;99169.91;7238562;40;20262;31
2023/09/10 21:52:15;;;;;;;15.75;5.65;;;;;;;20.95;66.71;99156.56;7278877;39;20244;31
2023/09/10 21:57:51;;;;;;;12.55;5.70;;;;;;;20.79;68.33;99149.00;7338324;39;20246;31
2023/09/10 22:03:11;;;;;;;18.02;5.90;;;;;;;20.76;67.77;99148.63;7328335;39;20249;31
2023/09/10 22:08:46;;;;;;;11.00;5.70;;;;;;;20.63;67.90;99145.00;7294572;39;20356;31
2023/09/10 22:14:22;;;;;;;10.57;4.90;;;;;;;20.54;68.42;99129.97;7233783;40;20316;31
2023/09/10 22:19:58;;;;;;;15.50;6.00;;;;;;;20.51;68.41;99138.66;7260506;39;20256;31
2023/09/10 22:25:18;;;;;;;13.68;5.53;;;;;;;20.44;68.61;99134.34;7280435;40;20244;31
2023/09/10 22:30:51;;;;;;;10.57;5.00;;;;;;;20.37;68.79;99137.16;7259285;40;20382;31
2023/09/10 22:36:26;;;;;;;9.15;5.30;;;;;;;20.35;69.21;99147.53;7277016;40;20812;31
2023/09/10 22:42:03;;;;;;;10.63;5.40;;;;;;;20.41;69.44;99129.31;7310359;39;20516;31
2023/09/10 22:47:37;;;;;;;14.67;5.50;;;;;;;20.38;68.55;99135.25;7317625;39;20275;31
2023/09/10 22:53:14;;;;;;;9.65;4.85;;;;;;;20.32;68.55;99144.38;7317252;39;20286;31
2023/09/10 22:58:33;;;;;;;10.60;5.22;;;;;;;20.22;69.24;99143.03;7309105;39;20627;31
2023/09/10 23:04:11;;;;;;;9.83;5.50;;;;;;;19.99;70.12;99136.56;7333995;39;20328;31
2023/09/10 23:09:31;;;;;;;9.70;5.25;;;;;;;19.94;70.60;99142.72;7326921;39;20747;31
2023/09/10 23:15:07;;;;;;;13.10;5.60;;;;;;;20.00;70.73;99127.31;7304308;39;20777;31
2023/09/10 23:20:40;;;;;;;11.60;5.55;;;;;;;19.73;70.52;99124.87;7361617;39;20255;31
2023/09/10 23:26:01;;;;;;;9.32;5.97;;;;;;;19.66;71.80;99131.47;7308064;39;21097;31
2023/09/10 23:31:21;;;;;;;13.75;6.00;;;;;;;19.74;70.46;99128.44;7324728;39;20641;31
2023/09/10 23:36:55;;;;;;;15.30;6.10;;;;;;;19.71;72.26;99124.25;7337678;39;20263;31
2023/09/10 23:42:16;;;;;;;9.60;6.00;;;;;;;19.71;70.86;99118.78;7285817;39;20335;31
2023/09/10 23:47:51;;;;;;;11.57;5.55;;;;;;;19.69;71.72;99112.72;7318241;39;20347;31
2023/09/10 23:53:27;;;;;;;14.35;6.45;;;;;;;19.69;72.35;99118.19;7268795;39;20245;31
2023/09/10 23:58:48;;;;;;;14.70;5.57;;;;;;;19.73;70.46;99113.94;7275041;39;20244;31
